sensor_id;sensor_type;location;lat;lon;timestamp;P1;durP1;ratioP1;P2;durP2;ratioP2
64615;SDS011;51027;42.162;24.754;2023-02-28T00:00:33;19.95;;;7.32;;
64615;SDS011;51027;42.162;24.754;2023-02-28T00:02:59;20.77;;;7.55;;
64615;SDS011;51027;42.162;24.754;2023-02-28T00:05:25;17.77;;;7.15;;
64615;SDS011;51027;42.162;24.754;2023-02-28T00:07:52;22.30;;;8.60;;
64615;SDS011;51027;42.162;24.754;2023-02-28T00:10:23;21.63;;;7.60;;
64615;SDS011;51027;42.162;24.754;2023-02-28T00:12:52;20.65;;;7.43;;
64615;SDS011;51027;42.162;24.754;2023-02-28T00:15:18;19.25;;;7.03;;
64615;SDS011;51027;42.162;24.754;2023-02-28T00:17:44;21.25;;;8.38;;
64615;SDS011;51027;42.162;24.754;2023-02-28T00:20:10;19.95;;;7.97;;
64615;SDS011;51027;42.162;24.754;2023-02-28T00:22:37;19.45;;;7.90;;
64615;SDS011;51027;42.162;24.754;2023-02-28T00:25:04;18.95;;;7.82;;
64615;SDS011;51027;42.162;24.754;2023-02-28T00:27:32;18.88;;;8.00;;
64615;SDS011;51027;42.162;24.754;2023-02-28T00:29:57;19.17;;;7.32;;
64615;SDS011;51027;42.162;24.754;2023-02-28T00:32:23;19.67;;;7.63;;
64615;SDS011;51027;42.162;24.754;2023-02-28T00:34:48;22.52;;;7.53;;
64615;SDS011;51027;42.162;24.754;2023-02-28T00:37:13;21.67;;;7.50;;
64615;SDS011;51027;42.162;24.754;2023-02-28T00:39:39;19.23;;;7.45;;
64615;SDS011;51027;42.162;24.754;2023-02-28T00:42:05;19.00;;;7.85;;
64615;SDS011;51027;42.162;24.754;2023-02-28T00:44:31;19.95;;;7.80;;
64615;SDS011;51027;42.162;24.754;2023-02-28T00:46:57;19.17;;;8.05;;
64615;SDS011;51027;42.162;24.754;2023-02-28T00:49:24;20.73;;;7.57;;
64615;SDS011;51027;42.162;24.754;2023-02-28T00:51:50;20.38;;;7.82;;
64615;SDS011;51027;42.162;24.754;2023-02-28T00:54:16;20.20;;;6.93;;
64615;SDS011;51027;42.162;24.754;2023-02-28T00:56:42;19.55;;;7.95;;
64615;SDS011;51027;42.162;24.754;2023-02-28T00:59:07;21.25;;;7.53;;
64615;SDS011;51027;42.162;24.754;2023-02-28T01:01:33;18.00;;;6.95;;
64615;SDS011;51027;42.162;24.754;2023-02-28T01:03:59;20.55;;;7.60;;
64615;SDS011;51027;42.162;24.754;2023-02-28T01:06:24;18.83;;;7.63;;
64615;SDS011;51027;42.162;24.754;2023-02-28T01:08:50;18.90;;;6.55;;
64615;SDS011;51027;42.162;24.754;2023-02-28T01:11:16;18.13;;;7.78;;
64615;SDS011;51027;42.162;24.754;2023-02-28T01:13:42;22.48;;;8.10;;
64615;SDS011;51027;42.162;24.754;2023-02-28T01:16:09;18.17;;;7.75;;
64615;SDS011;51027;42.162;24.754;2023-02-28T01:18:34;17.45;;;7.43;;
64615;SDS011;51027;42.162;24.754;2023-02-28T01:21:07;18.27;;;6.85;;
64615;SDS011;51027;42.162;24.754;2023-02-28T01:23:35;18.92;;;7.07;;
64615;SDS011;51027;42.162;24.754;2023-02-28T01:26:10;19.38;;;7.47;;
64615;SDS011;51027;42.162;24.754;2023-02-28T01:28:38;17.90;;;7.47;;
64615;SDS011;51027;42.162;24.754;2023-02-28T01:31:04;18.38;;;6.88;;
64615;SDS011;51027;42.162;24.754;2023-02-28T01:33:30;21.20;;;7.28;;
64615;SDS011;51027;42.162;24.754;2023-02-28T01:36:00;25.35;;;8.77;;
64615;SDS011;51027;42.162;24.754;2023-02-28T01:38:27;15.88;;;6.78;;
64615;SDS011;51027;42.162;24.754;2023-02-28T01:40:54;20.77;;;7.97;;
64615;SDS011;51027;42.162;24.754;2023-02-28T01:43:26;20.15;;;6.50;;
64615;SDS011;51027;42.162;24.754;2023-02-28T01:45:54;20.20;;;7.57;;
64615;SDS011;51027;42.162;24.754;2023-02-28T01:48:23;19.10;;;6.82;;
64615;SDS011;51027;42.162;24.754;2023-02-28T01:50:56;19.98;;;7.60;;
64615;SDS011;51027;42.162;24.754;2023-02-28T01:53:34;17.55;;;7.40;;
64615;SDS011;51027;42.162;24.754;2023-02-28T01:56:06;19.13;;;7.20;;
64615;SDS011;51027;42.162;24.754;2023-02-28T02:00:59;19.38;;;7.22;;
64615;SDS011;51027;42.162;24.754;2023-02-28T02:03:25;18.60;;;6.93;;
64615;SDS011;51027;42.162;24.754;2023-02-28T02:05:50;22.45;;;7.90;;
64615;SDS011;51027;42.162;24.754;2023-02-28T02:08:17;19.30;;;6.90;;
64615;SDS011;51027;42.162;24.754;2023-02-28T02:10:48;19.23;;;7.65;;
64615;SDS011;51027;42.162;24.754;2023-02-28T02:18:59;19.25;;;6.75;;
64615;SDS011;51027;42.162;24.754;2023-02-28T02:24:43;17.13;;;7.22;;
64615;SDS011;51027;42.162;24.754;2023-02-28T02:36:03;21.10;;;8.90;;
64615;SDS011;51027;42.162;24.754;2023-02-28T02:46:44;26.00;;;9.18;;
64615;SDS011;51027;42.162;24.754;2023-02-28T02:49:16;23.63;;;8.52;;
64615;SDS011;51027;42.162;24.754;2023-02-28T02:51:47;24.85;;;9.38;;
64615;SDS011;51027;42.162;24.754;2023-02-28T02:54:16;26.77;;;10.38;;
64615;SDS011;51027;42.162;24.754;2023-02-28T02:56:46;23.63;;;8.65;;
64615;SDS011;51027;42.162;24.754;2023-02-28T02:59:13;21.73;;;9.15;;
64615;SDS011;51027;42.162;24.754;2023-02-28T03:01:48;22.85;;;8.55;;
64615;SDS011;51027;42.162;24.754;2023-02-28T03:04:18;26.00;;;9.00;;
64615;SDS011;51027;42.162;24.754;2023-02-28T03:06:46;20.23;;;8.50;;
64615;SDS011;51027;42.162;24.754;2023-02-28T03:09:12;23.98;;;8.68;;
64615;SDS011;51027;42.162;24.754;2023-02-28T03:11:38;23.10;;;9.10;;
64615;SDS011;51027;42.162;24.754;2023-02-28T03:19:34;23.30;;;8.30;;
64615;SDS011;51027;42.162;24.754;2023-02-28T03:22:19;24.10;;;8.90;;
64615;SDS011;51027;42.162;24.754;2023-02-28T03:27:44;24.17;;;9.40;;
64615;SDS011;51027;42.162;24.754;2023-02-28T03:33:23;23.00;;;10.55;;
64615;SDS011;51027;42.162;24.754;2023-02-28T03:36:08;26.95;;;10.23;;
64615;SDS011;51027;42.162;24.754;2023-02-28T03:38:41;22.70;;;9.80;;
64615;SDS011;51027;42.162;24.754;2023-02-28T03:41:38;22.85;;;9.77;;
64615;SDS011;51027;42.162;24.754;2023-02-28T03:44:11;24.92;;;9.80;;
64615;SDS011;51027;42.162;24.754;2023-02-28T03:46:42;25.98;;;10.93;;
64615;SDS011;51027;42.162;24.754;2023-02-28T03:49:18;25.48;;;10.68;;
64615;SDS011;51027;42.162;24.754;2023-02-28T03:51:47;24.73;;;9.95;;
64615;SDS011;51027;42.162;24.754;2023-02-28T03:54:18;28.38;;;11.68;;
64615;SDS011;51027;42.162;24.754;2023-02-28T03:56:58;25.50;;;10.40;;
64615;SDS011;51027;42.162;24.754;2023-02-28T03:59:37;25.70;;;9.90;;
64615;SDS011;51027;42.162;24.754;2023-02-28T04:02:07;25.73;;;10.25;;
64615;SDS011;51027;42.162;24.754;2023-02-28T04:04:33;23.65;;;10.73;;
64615;SDS011;51027;42.162;24.754;2023-02-28T04:07:06;23.02;;;10.23;;
64615;SDS011;51027;42.162;24.754;2023-02-28T04:09:33;20.80;;;8.93;;
64615;SDS011;51027;42.162;24.754;2023-02-28T04:11:59;24.90;;;9.77;;
64615;SDS011;51027;42.162;24.754;2023-02-28T04:14:24;22.58;;;9.13;;
64615;SDS011;51027;42.162;24.754;2023-02-28T04:16:50;23.90;;;9.80;;
64615;SDS011;51027;42.162;24.754;2023-02-28T04:19:16;22.98;;;8.25;;
64615;SDS011;51027;42.162;24.754;2023-02-28T04:21:43;22.17;;;8.50;;
64615;SDS011;51027;42.162;24.754;2023-02-28T04:24:12;25.48;;;9.88;;
64615;SDS011;51027;42.162;24.754;2023-02-28T04:26:49;21.27;;;8.15;;
64615;SDS011;51027;42.162;24.754;2023-02-28T04:29:20;20.30;;;9.13;;
64615;SDS011;51027;42.162;24.754;2023-02-28T04:31:48;20.55;;;9.07;;
64615;SDS011;51027;42.162;24.754;2023-02-28T04:34:14;18.67;;;7.45;;
64615;SDS011;51027;42.162;24.754;2023-02-28T04:36:40;24.52;;;9.02;;
64615;SDS011;51027;42.162;24.754;2023-02-28T04:39:06;25.60;;;9.73;;
64615;SDS011;51027;42.162;24.754;2023-02-28T04:41:31;21.52;;;8.75;;
64615;SDS011;51027;42.162;24.754;2023-02-28T04:43:57;23.38;;;9.73;;
64615;SDS011;51027;42.162;24.754;2023-02-28T04:46:23;21.25;;;9.43;;
64615;SDS011;51027;42.162;24.754;2023-02-28T04:48:48;22.85;;;9.48;;
64615;SDS011;51027;42.162;24.754;2023-02-28T04:51:14;22.88;;;9.00;;
64615;SDS011;51027;42.162;24.754;2023-02-28T04:53:41;24.70;;;9.63;;
64615;SDS011;51027;42.162;24.754;2023-02-28T04:56:08;24.15;;;8.73;;
64615;SDS011;51027;42.162;24.754;2023-02-28T04:58:36;22.17;;;8.40;;
64615;SDS011;51027;42.162;24.754;2023-02-28T05:01:03;26.08;;;10.02;;
64615;SDS011;51027;42.162;24.754;2023-02-28T05:03:40;22.58;;;9.27;;
64615;SDS011;51027;42.162;24.754;2023-02-28T05:06:06;25.52;;;10.13;;
64615;SDS011;51027;42.162;24.754;2023-02-28T05:08:33;23.20;;;8.48;;
64615;SDS011;51027;42.162;24.754;2023-02-28T05:10:59;23.67;;;9.27;;
64615;SDS011;51027;42.162;24.754;2023-02-28T05:13:26;20.40;;;7.97;;
64615;SDS011;51027;42.162;24.754;2023-02-28T05:15:52;23.45;;;9.80;;
64615;SDS011;51027;42.162;24.754;2023-02-28T05:18:18;24.10;;;10.05;;
64615;SDS011;51027;42.162;24.754;2023-02-28T05:20:43;20.10;;;8.65;;
64615;SDS011;51027;42.162;24.754;2023-02-28T05:23:12;19.88;;;7.53;;
64615;SDS011;51027;42.162;24.754;2023-02-28T05:28:05;22.00;;;6.93;;
64615;SDS011;51027;42.162;24.754;2023-02-28T05:30:31;23.80;;;9.57;;
64615;SDS011;51027;42.162;24.754;2023-02-28T05:32:56;21.83;;;9.60;;
64615;SDS011;51027;42.162;24.754;2023-02-28T05:35:23;21.58;;;8.90;;
64615;SDS011;51027;42.162;24.754;2023-02-28T05:37:48;22.58;;;8.82;;
64615;SDS011;51027;42.162;24.754;2023-02-28T05:40:14;22.88;;;9.55;;
64615;SDS011;51027;42.162;24.754;2023-02-28T05:42:41;20.88;;;9.13;;
64615;SDS011;51027;42.162;24.754;2023-02-28T05:45:06;23.92;;;9.63;;
64615;SDS011;51027;42.162;24.754;2023-02-28T05:47:33;21.55;;;8.52;;
64615;SDS011;51027;42.162;24.754;2023-02-28T05:49:59;21.40;;;7.45;;
64615;SDS011;51027;42.162;24.754;2023-02-28T05:52:25;22.75;;;8.75;;
64615;SDS011;51027;42.162;24.754;2023-02-28T05:54:50;26.17;;;10.18;;
64615;SDS011;51027;42.162;24.754;2023-02-28T05:57:15;22.13;;;8.63;;
64615;SDS011;51027;42.162;24.754;2023-02-28T05:59:41;22.10;;;9.43;;
64615;SDS011;51027;42.162;24.754;2023-02-28T06:02:10;19.60;;;7.32;;
64615;SDS011;51027;42.162;24.754;2023-02-28T06:04:37;25.92;;;9.63;;
64615;SDS011;51027;42.162;24.754;2023-02-28T06:07:03;24.40;;;10.02;;
64615;SDS011;51027;42.162;24.754;2023-02-28T06:09:28;20.80;;;8.48;;
64615;SDS011;51027;42.162;24.754;2023-02-28T06:11:54;24.33;;;10.10;;
64615;SDS011;51027;42.162;24.754;2023-02-28T06:14:20;24.13;;;10.00;;
64615;SDS011;51027;42.162;24.754;2023-02-28T06:16:46;24.08;;;8.77;;
64615;SDS011;51027;42.162;24.754;2023-02-28T06:19:11;24.38;;;10.23;;
64615;SDS011;51027;42.162;24.754;2023-02-28T06:21:37;22.30;;;8.63;;
64615;SDS011;51027;42.162;24.754;2023-02-28T06:24:03;21.48;;;8.73;;
64615;SDS011;51027;42.162;24.754;2023-02-28T06:26:29;20.88;;;7.95;;
64615;SDS011;51027;42.162;24.754;2023-02-28T06:28:55;26.30;;;9.95;;
64615;SDS011;51027;42.162;24.754;2023-02-28T06:31:22;26.15;;;9.48;;
64615;SDS011;51027;42.162;24.754;2023-02-28T06:33:48;25.67;;;9.60;;
64615;SDS011;51027;42.162;24.754;2023-02-28T06:36:14;24.95;;;9.13;;
64615;SDS011;51027;42.162;24.754;2023-02-28T06:38:41;22.38;;;7.75;;
64615;SDS011;51027;42.162;24.754;2023-02-28T06:41:07;26.33;;;10.60;;
64615;SDS011;51027;42.162;24.754;2023-02-28T06:43:34;22.90;;;9.43;;
64615;SDS011;51027;42.162;24.754;2023-02-28T06:46:02;23.77;;;8.82;;
64615;SDS011;51027;42.162;24.754;2023-02-28T06:48:29;24.20;;;9.73;;
64615;SDS011;51027;42.162;24.754;2023-02-28T06:51:01;23.60;;;9.63;;
64615;SDS011;51027;42.162;24.754;2023-02-28T06:53:40;24.17;;;9.52;;
64615;SDS011;51027;42.162;24.754;2023-02-28T06:56:06;21.42;;;9.07;;
64615;SDS011;51027;42.162;24.754;2023-02-28T06:58:32;21.00;;;8.63;;
64615;SDS011;51027;42.162;24.754;2023-02-28T07:00:58;25.55;;;10.40;;
64615;SDS011;51027;42.162;24.754;2023-02-28T07:03:23;23.35;;;9.48;;
64615;SDS011;51027;42.162;24.754;2023-02-28T07:05:49;25.10;;;10.68;;
64615;SDS011;51027;42.162;24.754;2023-02-28T07:08:15;26.52;;;11.32;;
64615;SDS011;51027;42.162;24.754;2023-02-28T07:10:41;26.65;;;10.50;;
64615;SDS011;51027;42.162;24.754;2023-02-28T07:13:07;26.45;;;10.85;;
64615;SDS011;51027;42.162;24.754;2023-02-28T07:15:33;28.05;;;11.73;;
64615;SDS011;51027;42.162;24.754;2023-02-28T07:17:59;28.00;;;12.50;;
64615;SDS011;51027;42.162;24.754;2023-02-28T07:20:25;25.73;;;11.70;;
64615;SDS011;51027;42.162;24.754;2023-02-28T07:22:51;26.70;;;11.18;;
64615;SDS011;51027;42.162;24.754;2023-02-28T07:25:21;31.20;;;12.00;;
64615;SDS011;51027;42.162;24.754;2023-02-28T07:27:48;27.80;;;10.95;;
64615;SDS011;51027;42.162;24.754;2023-02-28T07:30:13;32.90;;;12.77;;
64615;SDS011;51027;42.162;24.754;2023-02-28T07:32:39;28.88;;;12.23;;
64615;SDS011;51027;42.162;24.754;2023-02-28T07:35:05;33.85;;;12.63;;
64615;SDS011;51027;42.162;24.754;2023-02-28T07:37:31;24.63;;;9.65;;
64615;SDS011;51027;42.162;24.754;2023-02-28T07:40:02;25.70;;;9.70;;
64615;SDS011;51027;42.162;24.754;2023-02-28T07:42:33;29.48;;;11.90;;
64615;SDS011;51027;42.162;24.754;2023-02-28T07:44:59;26.00;;;10.68;;
64615;SDS011;51027;42.162;24.754;2023-02-28T07:47:25;25.85;;;11.13;;
64615;SDS011;51027;42.162;24.754;2023-02-28T07:49:51;28.10;;;9.75;;
64615;SDS011;51027;42.162;24.754;2023-02-28T07:52:16;32.30;;;12.48;;
64615;SDS011;51027;42.162;24.754;2023-02-28T07:54:42;31.00;;;14.73;;
64615;SDS011;51027;42.162;24.754;2023-02-28T07:57:07;21.42;;;9.70;;
64615;SDS011;51027;42.162;24.754;2023-02-28T07:59:33;29.27;;;11.93;;
64615;SDS011;51027;42.162;24.754;2023-02-28T08:01:58;30.77;;;14.02;;
64615;SDS011;51027;42.162;24.754;2023-02-28T08:04:24;22.48;;;10.13;;
64615;SDS011;51027;42.162;24.754;2023-02-28T08:06:50;34.70;;;14.48;;
64615;SDS011;51027;42.162;24.754;2023-02-28T08:09:23;33.67;;;15.45;;
64615;SDS011;51027;42.162;24.754;2023-02-28T08:11:50;26.05;;;11.98;;
64615;SDS011;51027;42.162;24.754;2023-02-28T08:14:16;29.10;;;11.40;;
64615;SDS011;51027;42.162;24.754;2023-02-28T08:16:41;33.55;;;14.65;;
64615;SDS011;51027;42.162;24.754;2023-02-28T08:19:08;36.83;;;16.45;;
64615;SDS011;51027;42.162;24.754;2023-02-28T08:21:33;31.67;;;13.38;;
64615;SDS011;51027;42.162;24.754;2023-02-28T08:23:59;29.38;;;13.43;;
64615;SDS011;51027;42.162;24.754;2023-02-28T08:26:24;30.73;;;13.32;;
64615;SDS011;51027;42.162;24.754;2023-02-28T08:28:50;32.83;;;14.88;;
64615;SDS011;51027;42.162;24.754;2023-02-28T08:31:16;26.45;;;12.32;;
64615;SDS011;51027;42.162;24.754;2023-02-28T08:33:42;31.08;;;14.70;;
64615;SDS011;51027;42.162;24.754;2023-02-28T08:36:10;35.58;;;17.02;;
64615;SDS011;51027;42.162;24.754;2023-02-28T08:38:37;32.33;;;15.73;;
64615;SDS011;51027;42.162;24.754;2023-02-28T08:41:03;36.22;;;15.32;;
64615;SDS011;51027;42.162;24.754;2023-02-28T08:43:32;31.52;;;13.32;;
64615;SDS011;51027;42.162;24.754;2023-02-28T08:45:58;33.28;;;12.45;;
64615;SDS011;51027;42.162;24.754;2023-02-28T08:48:25;30.20;;;13.13;;
64615;SDS011;51027;42.162;24.754;2023-02-28T08:50:58;28.15;;;13.13;;
64615;SDS011;51027;42.162;24.754;2023-02-28T08:53:28;29.98;;;12.57;;
64615;SDS011;51027;42.162;24.754;2023-02-28T08:55:58;26.70;;;12.60;;
64615;SDS011;51027;42.162;24.754;2023-02-28T08:58:24;28.17;;;12.07;;
64615;SDS011;51027;42.162;24.754;2023-02-28T09:00:50;28.08;;;12.40;;
64615;SDS011;51027;42.162;24.754;2023-02-28T09:03:16;33.58;;;14.75;;
64615;SDS011;51027;42.162;24.754;2023-02-28T09:05:51;33.28;;;14.02;;
64615;SDS011;51027;42.162;24.754;2023-02-28T09:08:24;28.52;;;14.18;;
64615;SDS011;51027;42.162;24.754;2023-02-28T09:10:51;29.50;;;12.60;;
64615;SDS011;51027;42.162;24.754;2023-02-28T09:13:18;37.90;;;16.55;;
64615;SDS011;51027;42.162;24.754;2023-02-28T09:15:44;45.17;;;21.95;;
64615;SDS011;51027;42.162;24.754;2023-02-28T09:18:10;38.13;;;19.70;;
64615;SDS011;51027;42.162;24.754;2023-02-28T09:20:38;38.60;;;18.20;;
64615;SDS011;51027;42.162;24.754;2023-02-28T09:23:05;34.85;;;17.65;;
64615;SDS011;51027;42.162;24.754;2023-02-28T09:25:31;34.28;;;18.08;;
64615;SDS011;51027;42.162;24.754;2023-02-28T09:27:56;36.67;;;17.35;;
64615;SDS011;51027;42.162;24.754;2023-02-28T09:30:22;40.53;;;18.17;;
64615;SDS011;51027;42.162;24.754;2023-02-28T09:32:47;40.95;;;20.48;;
64615;SDS011;51027;42.162;24.754;2023-02-28T09:35:17;36.20;;;18.65;;
64615;SDS011;51027;42.162;24.754;2023-02-28T09:37:43;30.83;;;14.50;;
64615;SDS011;51027;42.162;24.754;2023-02-28T09:40:09;38.55;;;20.35;;
64615;SDS011;51027;42.162;24.754;2023-02-28T09:42:35;31.88;;;14.85;;
64615;SDS011;51027;42.162;24.754;2023-02-28T09:45:02;39.28;;;20.85;;
64615;SDS011;51027;42.162;24.754;2023-02-28T09:47:45;31.40;;;15.10;;
64615;SDS011;51027;42.162;24.754;2023-02-28T09:52:59;35.53;;;16.55;;
64615;SDS011;51027;42.162;24.754;2023-02-28T09:55:34;28.92;;;13.38;;
64615;SDS011;51027;42.162;24.754;2023-02-28T09:58:05;37.33;;;16.75;;
64615;SDS011;51027;42.162;24.754;2023-02-28T10:00:39;36.90;;;15.98;;
64615;SDS011;51027;42.162;24.754;2023-02-28T10:06:19;42.55;;;19.60;;
64615;SDS011;51027;42.162;24.754;2023-02-28T10:11:07;43.30;;;19.42;;
64615;SDS011;51027;42.162;24.754;2023-02-28T10:16:31;34.83;;;16.73;;
64615;SDS011;51027;42.162;24.754;2023-02-28T10:22:10;36.60;;;16.58;;
64615;SDS011;51027;42.162;24.754;2023-02-28T10:24:43;41.78;;;17.85;;
64615;SDS011;51027;42.162;24.754;2023-02-28T10:29:47;39.08;;;16.92;;
64615;SDS011;51027;42.162;24.754;2023-02-28T10:32:19;37.03;;;17.17;;
64615;SDS011;51027;42.162;24.754;2023-02-28T10:34:52;32.95;;;13.50;;
64615;SDS011;51027;42.162;24.754;2023-02-28T10:37:22;33.25;;;15.10;;
64615;SDS011;51027;42.162;24.754;2023-02-28T10:39:47;38.78;;;18.10;;
64615;SDS011;51027;42.162;24.754;2023-02-28T10:42:23;41.50;;;18.52;;
64615;SDS011;51027;42.162;24.754;2023-02-28T10:47:49;34.85;;;16.60;;
64615;SDS011;51027;42.162;24.754;2023-02-28T10:52:54;36.20;;;18.17;;
64615;SDS011;51027;42.162;24.754;2023-02-28T10:55:21;38.58;;;17.67;;
64615;SDS011;51027;42.162;24.754;2023-02-28T10:57:50;43.03;;;18.83;;
64615;SDS011;51027;42.162;24.754;2023-02-28T11:00:20;38.28;;;17.42;;
64615;SDS011;51027;42.162;24.754;2023-02-28T11:02:47;41.45;;;18.83;;
64615;SDS011;51027;42.162;24.754;2023-02-28T11:05:33;41.53;;;20.17;;
64615;SDS011;51027;42.162;24.754;2023-02-28T11:10:43;35.65;;;16.50;;
64615;SDS011;51027;42.162;24.754;2023-02-28T11:13:17;37.80;;;17.77;;
64615;SDS011;51027;42.162;24.754;2023-02-28T11:15:54;37.58;;;18.25;;
64615;SDS011;51027;42.162;24.754;2023-02-28T11:18:24;33.30;;;15.63;;
64615;SDS011;51027;42.162;24.754;2023-02-28T11:20:55;38.45;;;18.05;;
64615;SDS011;51027;42.162;24.754;2023-02-28T11:23:23;41.90;;;18.67;;
64615;SDS011;51027;42.162;24.754;2023-02-28T11:28:30;38.50;;;18.90;;
64615;SDS011;51027;42.162;24.754;2023-02-28T11:31:01;44.40;;;20.17;;
64615;SDS011;51027;42.162;24.754;2023-02-28T11:33:32;35.10;;;16.40;;
64615;SDS011;51027;42.162;24.754;2023-02-28T11:36:11;35.17;;;14.80;;
64615;SDS011;51027;42.162;24.754;2023-02-28T11:38:49;38.38;;;18.23;;
64615;SDS011;51027;42.162;24.754;2023-02-28T12:02:50;42.13;;;20.77;;
64615;SDS011;51027;42.162;24.754;2023-02-28T12:18:39;34.88;;;17.17;;
64615;SDS011;51027;42.162;24.754;2023-02-28T12:23:45;42.47;;;19.63;;
64615;SDS011;51027;42.162;24.754;2023-02-28T12:29:02;39.00;;;18.17;;
64615;SDS011;51027;42.162;24.754;2023-02-28T12:31:36;40.13;;;18.00;;
64615;SDS011;51027;42.162;24.754;2023-02-28T12:34:07;39.20;;;20.02;;
64615;SDS011;51027;42.162;24.754;2023-02-28T12:36:37;41.72;;;21.67;;
64615;SDS011;51027;42.162;24.754;2023-02-28T12:41:56;44.22;;;19.42;;
64615;SDS011;51027;42.162;24.754;2023-02-28T12:44:27;41.00;;;21.10;;
64615;SDS011;51027;42.162;24.754;2023-02-28T12:46:59;43.78;;;20.35;;
64615;SDS011;51027;42.162;24.754;2023-02-28T12:52:10;43.55;;;20.52;;
64615;SDS011;51027;42.162;24.754;2023-02-28T12:54:47;45.55;;;20.35;;
64615;SDS011;51027;42.162;24.754;2023-02-28T12:57:25;41.80;;;19.95;;
64615;SDS011;51027;42.162;24.754;2023-02-28T13:00:20;37.38;;;18.95;;
64615;SDS011;51027;42.162;24.754;2023-02-28T13:08:50;41.38;;;19.55;;
64615;SDS011;51027;42.162;24.754;2023-02-28T13:10:52;37.33;;;18.58;;
64615;SDS011;51027;42.162;24.754;2023-02-28T13:13:24;39.55;;;18.48;;
64615;SDS011;51027;42.162;24.754;2023-02-28T13:21:02;41.38;;;19.98;;
64615;SDS011;51027;42.162;24.754;2023-02-28T13:23:38;38.20;;;18.25;;
64615;SDS011;51027;42.162;24.754;2023-02-28T13:26:03;42.67;;;19.00;;
64615;SDS011;51027;42.162;24.754;2023-02-28T13:31:18;35.13;;;17.77;;
64615;SDS011;51027;42.162;24.754;2023-02-28T13:38:42;38.65;;;19.17;;
64615;SDS011;51027;42.162;24.754;2023-02-28T13:44:16;39.63;;;18.58;;
64615;SDS011;51027;42.162;24.754;2023-02-28T13:49:24;35.67;;;16.92;;
64615;SDS011;51027;42.162;24.754;2023-02-28T13:51:56;35.47;;;17.92;;
64615;SDS011;51027;42.162;24.754;2023-02-28T14:08:56;35.92;;;16.52;;
64615;SDS011;51027;42.162;24.754;2023-02-28T14:11:32;34.30;;;17.10;;
64615;SDS011;51027;42.162;24.754;2023-02-28T14:14:00;36.63;;;17.58;;
64615;SDS011;51027;42.162;24.754;2023-02-28T14:16:37;33.95;;;15.93;;
64615;SDS011;51027;42.162;24.754;2023-02-28T14:21:52;26.30;;;12.90;;
64615;SDS011;51027;42.162;24.754;2023-02-28T14:24:34;29.58;;;13.88;;
64615;SDS011;51027;42.162;24.754;2023-02-28T14:33:04;28.10;;;13.30;;
64615;SDS011;51027;42.162;24.754;2023-02-28T14:38:18;23.02;;;11.20;;
64615;SDS011;51027;42.162;24.754;2023-02-28T14:40:49;26.13;;;11.80;;
64615;SDS011;51027;42.162;24.754;2023-02-28T14:43:21;27.33;;;12.43;;
64615;SDS011;51027;42.162;24.754;2023-02-28T14:45:52;23.60;;;10.98;;
64615;SDS011;51027;42.162;24.754;2023-02-28T14:48:20;23.55;;;10.73;;
64615;SDS011;51027;42.162;24.754;2023-02-28T14:50:48;26.45;;;11.65;;
64615;SDS011;51027;42.162;24.754;2023-02-28T14:53:18;25.67;;;12.25;;
64615;SDS011;51027;42.162;24.754;2023-02-28T14:55:46;24.67;;;10.85;;
64615;SDS011;51027;42.162;24.754;2023-02-28T14:58:21;24.83;;;11.57;;
64615;SDS011;51027;42.162;24.754;2023-02-28T15:00:47;25.30;;;11.25;;
64615;SDS011;51027;42.162;24.754;2023-02-28T15:03:24;25.42;;;11.90;;
64615;SDS011;51027;42.162;24.754;2023-02-28T15:06:06;26.25;;;12.55;;
64615;SDS011;51027;42.162;24.754;2023-02-28T15:08:38;27.30;;;13.00;;
64615;SDS011;51027;42.162;24.754;2023-02-28T15:11:08;27.20;;;11.32;;
64615;SDS011;51027;42.162;24.754;2023-02-28T15:13:47;31.70;;;14.48;;
64615;SDS011;51027;42.162;24.754;2023-02-28T15:19:18;29.42;;;15.13;;
64615;SDS011;51027;42.162;24.754;2023-02-28T15:22:04;27.63;;;12.30;;
64615;SDS011;51027;42.162;24.754;2023-02-28T15:26:59;28.55;;;12.07;;
64615;SDS011;51027;42.162;24.754;2023-02-28T15:29:29;31.08;;;14.45;;
64615;SDS011;51027;42.162;24.754;2023-02-28T15:32:05;27.65;;;13.70;;
64615;SDS011;51027;42.162;24.754;2023-02-28T15:34:39;30.35;;;14.52;;
64615;SDS011;51027;42.162;24.754;2023-02-28T15:39:56;27.42;;;10.85;;
64615;SDS011;51027;42.162;24.754;2023-02-28T15:42:27;28.15;;;12.00;;
64615;SDS011;51027;42.162;24.754;2023-02-28T15:44:54;27.95;;;12.57;;
64615;SDS011;51027;42.162;24.754;2023-02-28T15:47:23;24.15;;;11.70;;
64615;SDS011;51027;42.162;24.754;2023-02-28T15:52:24;25.55;;;12.02;;
64615;SDS011;51027;42.162;24.754;2023-02-28T15:54:56;31.00;;;15.48;;
64615;SDS011;51027;42.162;24.754;2023-02-28T15:57:27;28.85;;;12.98;;
64615;SDS011;51027;42.162;24.754;2023-02-28T15:59:58;30.33;;;13.93;;
64615;SDS011;51027;42.162;24.754;2023-02-28T16:02:32;30.95;;;14.77;;
64615;SDS011;51027;42.162;24.754;2023-02-28T16:07:26;31.70;;;16.15;;
64615;SDS011;51027;42.162;24.754;2023-02-28T16:09:53;35.47;;;17.17;;
64615;SDS011;51027;42.162;24.754;2023-02-28T16:12:19;38.65;;;18.35;;
64615;SDS011;51027;42.162;24.754;2023-02-28T16:14:48;38.08;;;18.05;;
64615;SDS011;51027;42.162;24.754;2023-02-28T16:17:28;37.42;;;19.27;;
64615;SDS011;51027;42.162;24.754;2023-02-28T16:19:56;41.28;;;20.63;;
64615;SDS011;51027;42.162;24.754;2023-02-28T16:22:21;39.85;;;20.48;;
64615;SDS011;51027;42.162;24.754;2023-02-28T16:24:47;36.25;;;20.80;;
64615;SDS011;51027;42.162;24.754;2023-02-28T16:27:30;34.60;;;16.95;;
64615;SDS011;51027;42.162;24.754;2023-02-28T16:30:00;32.10;;;14.80;;
64615;SDS011;51027;42.162;24.754;2023-02-28T16:32:26;31.35;;;14.30;;
64615;SDS011;51027;42.162;24.754;2023-02-28T16:34:51;25.30;;;12.63;;
64615;SDS011;51027;42.162;24.754;2023-02-28T16:37:17;36.28;;;16.50;;
64615;SDS011;51027;42.162;24.754;2023-02-28T16:39:43;32.53;;;15.45;;
64615;SDS011;51027;42.162;24.754;2023-02-28T16:42:18;33.47;;;15.75;;
64615;SDS011;51027;42.162;24.754;2023-02-28T16:44:47;36.58;;;17.13;;
64615;SDS011;51027;42.162;24.754;2023-02-28T16:47:13;39.22;;;19.48;;
64615;SDS011;51027;42.162;24.754;2023-02-28T16:49:39;33.03;;;14.48;;
64615;SDS011;51027;42.162;24.754;2023-02-28T16:52:07;23.83;;;11.27;;
64615;SDS011;51027;42.162;24.754;2023-02-28T16:54:32;31.48;;;15.05;;
64615;SDS011;51027;42.162;24.754;2023-02-28T16:56:58;23.48;;;10.02;;
64615;SDS011;51027;42.162;24.754;2023-02-28T16:59:24;30.40;;;12.38;;
64615;SDS011;51027;42.162;24.754;2023-02-28T17:01:51;25.85;;;11.68;;
64615;SDS011;51027;42.162;24.754;2023-02-28T17:04:17;28.83;;;13.52;;
64615;SDS011;51027;42.162;24.754;2023-02-28T17:06:43;27.17;;;12.80;;
64615;SDS011;51027;42.162;24.754;2023-02-28T17:09:19;30.48;;;13.35;;
64615;SDS011;51027;42.162;24.754;2023-02-28T17:11:46;24.67;;;11.60;;
64615;SDS011;51027;42.162;24.754;2023-02-28T17:14:13;29.73;;;13.68;;
64615;SDS011;51027;42.162;24.754;2023-02-28T17:16:39;28.65;;;13.27;;
64615;SDS011;51027;42.162;24.754;2023-02-28T17:19:06;33.35;;;15.70;;
64615;SDS011;51027;42.162;24.754;2023-02-28T17:21:36;32.45;;;15.25;;